Time;durP1;ratioP1;P1;durP2;ratioP2;P2;SDS_P1;SDS_P2;PMS_P1;PMS_P2;Temp;Humidity;BMP_temperature;BMP_pressure;BME280_temperature;BME280_humidity;BME280_pressure;Samples;Min_cycle;Max_cycle;Signal;HPM_P1;HPM_P2
2023/10/28 00:02:22;;;;;;;44.95;21.25;;;;;;;;;;5062640;28;20483;-72
2023/10/28 00:04:47;;;;;;;40.83;19.25;;;;;;;;;;5068329;28;20044;-72
2023/10/28 00:07:13;;;;;;;41.42;19.42;;;;;;;;;;5061864;28;20559;-72
2023/10/28 00:09:40;;;;;;;44.72;19.50;;;;;;;;;;5061632;28;20037;-72
2023/10/28 00:12:08;;;;;;;43.72;19.60;;;;;;;;;;5059238;28;20036;-72
2023/10/28 00:14:34;;;;;;;40.42;20.35;;;;;;;;;;5059412;28;20090;-72
2023/10/28 00:17:00;;;;;;;44.25;19.85;;;;;;;;;;5064903;28;20518;-72
2023/10/28 00:19:29;;;;;;;45.78;20.33;;;;;;;;;;5061766;28;20052;-72
2023/10/28 00:21:55;;;;;;;41.78;19.80;;;;;;;;;;5059683;28;20052;-72
2023/10/28 00:24:22;;;;;;;39.65;19.40;;;;;;;;;;5070531;28;20036;-72
2023/10/28 00:26:48;;;;;;;38.75;18.35;;;;;;;;;;5070941;28;20401;-72
2023/10/28 00:29:14;;;;;;;37.70;19.48;;;;;;;;;;5070032;28;20056;-72
2023/10/28 00:31:40;;;;;;;36.85;19.15;;;;;;;;;;5059357;28;20037;-72
2023/10/28 00:34:06;;;;;;;38.40;18.75;;;;;;;;;;5068304;28;20372;-72
2023/10/28 00:36:32;;;;;;;44.80;19.50;;;;;;;;;;5068961;28;20037;-72
2023/10/28 00:38:58;;;;;;;37.42;18.23;;;;;;;;;;5064848;28;20040;-72
2023/10/28 00:41:24;;;;;;;36.40;18.77;;;;;;;;;;5068056;28;20043;-72
2023/10/28 00:43:50;;;;;;;38.45;19.92;;;;;;;;;;5069228;28;20102;-72
2023/10/28 00:46:16;;;;;;;38.95;19.90;;;;;;;;;;5068459;28;20044;-72
2023/10/28 00:48:42;;;;;;;35.47;18.58;;;;;;;;;;5045056;28;20048;-72
2023/10/28 00:51:08;;;;;;;40.08;18.65;;;;;;;;;;5066977;28;20044;-72
2023/10/28 00:53:35;;;;;;;37.75;20.20;;;;;;;;;;5060918;28;20049;-72
2023/10/28 00:56:01;;;;;;;35.47;18.90;;;;;;;;;;5064094;28;20556;-72
2023/10/28 00:58:28;;;;;;;35.47;18.55;;;;;;;;;;5063652;28;20048;-72
2023/10/28 01:00:54;;;;;;;38.03;19.83;;;;;;;;;;5065160;28;20040;-72
2023/10/28 01:03:20;;;;;;;34.85;18.50;;;;;;;;;;5065138;28;20045;-72
2023/10/28 01:05:46;;;;;;;35.30;18.27;;;;;;;;;;5063677;28;20036;-72
2023/10/28 01:08:12;;;;;;;36.92;18.42;;;;;;;;;;5064864;28;20029;-72
2023/10/28 01:10:40;;;;;;;37.35;19.23;;;;;;;;;;5070702;28;20094;-72
2023/10/28 01:13:08;;;;;;;31.15;18.17;;;;;;;;;;5073652;28;20048;-72
2023/10/28 01:15:34;;;;;;;33.17;17.75;;;;;;;;;;5067666;28;20044;-71
2023/10/28 01:18:00;;;;;;;34.72;18.50;;;;;;;;;;5072645;28;20039;-71
2023/10/28 01:20:26;;;;;;;34.97;18.27;;;;;;;;;;5068092;28;20037;-71
2023/10/28 01:22:52;;;;;;;36.15;18.25;;;;;;;;;;5060633;28;20116;-71
2023/10/28 01:25:19;;;;;;;32.25;17.48;;;;;;;;;;5056356;28;20040;-71
2023/10/28 01:27:45;;;;;;;31.48;17.42;;;;;;;;;;5057063;28;20037;-71
2023/10/28 01:30:14;;;;;;;31.48;17.20;;;;;;;;;;5062272;28;20147;-71
2023/10/28 01:32:41;;;;;;;28.90;16.10;;;;;;;;;;5059773;28;20122;-71
2023/10/28 01:35:11;;;;;;;30.60;16.67;;;;;;;;;;5070191;28;20045;-71
2023/10/28 01:37:39;;;;;;;31.17;16.65;;;;;;;;;;5074159;28;20043;-71
2023/10/28 01:40:13;;;;;;;30.55;16.38;;;;;;;;;;5057727;28;20040;-72
2023/10/28 01:42:39;;;;;;;31.13;15.95;;;;;;;;;;5064949;28;20051;-72
2023/10/28 01:45:06;;;;;;;28.25;15.57;;;;;;;;;;5071785;28;20059;-72
2023/10/28 01:47:33;;;;;;;29.15;16.08;;;;;;;;;;5063545;28;20497;-72
2023/10/28 01:49:59;;;;;;;28.00;14.18;;;;;;;;;;5059977;28;20044;-72
2023/10/28 01:52:25;;;;;;;29.08;13.65;;;;;;;;;;5063304;28;20414;-72
2023/10/28 01:54:51;;;;;;;30.52;15.00;;;;;;;;;;5072930;28;20478;-72
2023/10/28 01:57:18;;;;;;;26.65;14.18;;;;;;;;;;5065311;28;20115;-72
2023/10/28 01:59:44;;;;;;;29.23;14.25;;;;;;;;;;5061658;28;20087;-72
2023/10/28 02:02:10;;;;;;;25.50;13.65;;;;;;;;;;5063222;28;20063;-72
2023/10/28 02:04:36;;;;;;;25.65;14.45;;;;;;;;;;5062797;28;20041;-72
2023/10/28 02:07:04;;;;;;;26.58;13.80;;;;;;;;;;5063652;28;20560;-72
2023/10/28 02:09:33;;;;;;;25.25;13.82;;;;;;;;;;5056167;28;20053;-72
2023/10/28 02:12:04;;;;;;;26.02;13.68;;;;;;;;;;5052807;28;20094;-72
2023/10/28 02:14:30;;;;;;;22.30;12.90;;;;;;;;;;5055950;28;20457;-72
2023/10/28 02:16:56;;;;;;;25.77;14.27;;;;;;;;;;5058684;28;20041;-72
2023/10/28 02:19:22;;;;;;;22.02;12.50;;;;;;;;;;5061128;28;20124;-72
2023/10/28 02:21:49;;;;;;;24.08;13.55;;;;;;;;;;5058517;28;20388;-72
2023/10/28 02:24:18;;;;;;;22.75;13.82;;;;;;;;;;5056785;28;20536;-73
2023/10/28 02:26:44;;;;;;;24.92;13.45;;;;;;;;;;5056377;28;20049;-72
2023/10/28 02:29:10;;;;;;;25.38;13.35;;;;;;;;;;5057166;28;20041;-72
2023/10/28 02:31:36;;;;;;;24.00;12.98;;;;;;;;;;5055500;28;20087;-72
2023/10/28 02:34:05;;;;;;;22.90;13.07;;;;;;;;;;5066895;28;20086;-72
2023/10/28 02:36:31;;;;;;;21.67;12.20;;;;;;;;;;5055346;28;20396;-72
2023/10/28 02:38:57;;;;;;;21.13;11.75;;;;;;;;;;5061874;28;20051;-72
2023/10/28 02:41:23;;;;;;;22.17;13.35;;;;;;;;;;5057894;28;20517;-72
2023/10/28 02:43:49;;;;;;;19.88;11.85;;;;;;;;;;5062218;28;20045;-72
2023/10/28 02:46:21;;;;;;;20.88;12.75;;;;;;;;;;5070736;28;20041;-72
2023/10/28 02:48:48;;;;;;;19.15;10.80;;;;;;;;;;5059030;28;20032;-72
2023/10/28 02:51:14;;;;;;;21.67;11.82;;;;;;;;;;5071624;28;20043;-72
2023/10/28 02:53:40;;;;;;;24.70;12.90;;;;;;;;;;5071946;28;20037;-72
2023/10/28 02:56:06;;;;;;;19.85;12.15;;;;;;;;;;5064488;28;20045;-72
2023/10/28 02:58:32;;;;;;;22.33;11.52;;;;;;;;;;5067901;28;20052;-72
2023/10/28 03:01:06;;;;;;;20.85;11.25;;;;;;;;;;5068716;28;20033;-72
2023/10/28 03:03:32;;;;;;;22.63;11.65;;;;;;;;;;5065097;28;20094;-72
2023/10/28 03:05:58;;;;;;;16.10;11.23;;;;;;;;;;5058166;28;20029;-72
2023/10/28 03:08:24;;;;;;;21.17;11.77;;;;;;;;;;5068940;28;20062;-72
2023/10/28 03:10:50;;;;;;;24.35;12.13;;;;;;;;;;5071226;28;20036;-72
2023/10/28 03:13:16;;;;;;;18.05;10.73;;;;;;;;;;5072583;28;20116;-72
2023/10/28 03:15:45;;;;;;;20.05;10.63;;;;;;;;;;5063249;28;20714;-72
2023/10/28 03:18:11;;;;;;;22.17;12.10;;;;;;;;;;5066527;28;20051;-72
2023/10/28 03:20:37;;;;;;;20.35;11.80;;;;;;;;;;5070945;28;20059;-72
2023/10/28 03:23:03;;;;;;;18.67;11.20;;;;;;;;;;5057673;28;20913;-72
2023/10/28 03:25:31;;;;;;;22.13;13.23;;;;;;;;;;5063835;28;20112;-72
2023/10/28 03:28:00;;;;;;;23.65;11.45;;;;;;;;;;5060241;28;20187;-72
2023/10/28 03:30:26;;;;;;;20.17;12.27;;;;;;;;;;5056463;28;20037;-72
2023/10/28 03:32:52;;;;;;;20.05;11.80;;;;;;;;;;5057754;28;20052;-72
2023/10/28 03:35:18;;;;;;;19.95;11.98;;;;;;;;;;5059075;28;20093;-72
2023/10/28 03:37:44;;;;;;;18.85;10.98;;;;;;;;;;5054424;28;20028;-72
2023/10/28 03:40:10;;;;;;;24.42;11.90;;;;;;;;;;5058903;28;20464;-72
2023/10/28 03:42:36;;;;;;;20.13;11.35;;;;;;;;;;5055271;28;20368;-72
2023/10/28 03:45:07;;;;;;;18.92;12.07;;;;;;;;;;5059197;28;20048;-72
2023/10/28 03:47:33;;;;;;;23.88;11.82;;;;;;;;;;5054937;28;20044;-72
2023/10/28 03:49:59;;;;;;;19.48;11.60;;;;;;;;;;5066806;28;20036;-72
2023/10/28 03:52:26;;;;;;;19.85;11.52;;;;;;;;;;5062007;28;20051;-72
2023/10/28 03:54:52;;;;;;;20.63;11.13;;;;;;;;;;5063668;28;20074;-72
2023/10/28 03:57:18;;;;;;;23.80;12.35;;;;;;;;;;5071992;23;20615;-71
2023/10/28 03:59:46;;;;;;;22.75;12.10;;;;;;;;;;5087584;28;20040;-71
2023/10/28 04:02:12;;;;;;;21.33;10.73;;;;;;;;;;5088414;28;20043;-72
2023/10/28 04:04:38;;;;;;;22.83;11.75;;;;;;;;;;5084317;28;20135;-72
2023/10/28 04:07:04;;;;;;;20.05;11.95;;;;;;;;;;5081242;28;20108;-72
2023/10/28 04:09:30;;;;;;;24.85;12.45;;;;;;;;;;5076422;28;20085;-72
2023/10/28 04:11:56;;;;;;;27.92;12.18;;;;;;;;;;5075231;28;20490;-72
2023/10/28 04:14:23;;;;;;;26.23;11.98;;;;;;;;;;5072833;28;20048;-72
2023/10/28 04:16:49;;;;;;;23.00;11.68;;;;;;;;;;5078453;28;20040;-72
2023/10/28 04:19:16;;;;;;;23.00;11.27;;;;;;;;;;5083634;28;20051;-72
2023/10/28 04:21:42;;;;;;;27.05;13.07;;;;;;;;;;5079717;28;20040;-73
2023/10/28 04:24:09;;;;;;;22.50;12.55;;;;;;;;;;5078360;28;20390;-73
2023/10/28 04:26:36;;;;;;;23.02;11.77;;;;;;;;;;5076330;28;20090;-72
2023/10/28 04:29:03;;;;;;;22.38;11.95;;;;;;;;;;5076286;28;20406;-72
2023/10/28 04:31:29;;;;;;;26.75;12.68;;;;;;;;;;5081143;28;20036;-72
2023/10/28 04:33:56;;;;;;;26.75;12.80;;;;;;;;;;5076108;28;20059;-72
2023/10/28 04:36:22;;;;;;;31.92;13.18;;;;;;;;;;5078910;28;20036;-72
2023/10/28 04:38:48;;;;;;;29.45;12.15;;;;;;;;;;5077362;28;20119;-72
2023/10/28 04:41:14;;;;;;;31.00;13.32;;;;;;;;;;5082785;28;20044;-72
2023/10/28 04:43:40;;;;;;;30.00;13.52;;;;;;;;;;5079282;28;20429;-72
2023/10/28 04:46:06;;;;;;;24.67;12.73;;;;;;;;;;5080134;28;20040;-72
2023/10/28 04:48:32;;;;;;;23.83;12.00;;;;;;;;;;5078924;28;20051;-72
2023/10/28 04:50:59;;;;;;;22.50;11.85;;;;;;;;;;5078747;28;20616;-72
2023/10/28 04:53:24;;;;;;;26.42;12.50;;;;;;;;;;5081991;28;20035;-72
2023/10/28 04:55:51;;;;;;;24.90;12.80;;;;;;;;;;5079722;28;20040;-72
2023/10/28 04:58:17;;;;;;;25.35;12.75;;;;;;;;;;5081663;28;20043;-72
2023/10/28 05:00:45;;;;;;;23.33;12.15;;;;;;;;;;5079766;28;20048;-72
2023/10/28 05:03:12;;;;;;;25.38;12.60;;;;;;;;;;5059376;28;20182;-72
2023/10/28 05:05:38;;;;;;;20.95;11.88;;;;;;;;;;5069621;28;20044;-72
2023/10/28 05:08:04;;;;;;;25.50;12.52;;;;;;;;;;5083546;28;20036;-72
2023/10/28 05:10:31;;;;;;;26.40;11.75;;;;;;;;;;5083728;28;20051;-72
2023/10/28 05:12:57;;;;;;;24.80;12.48;;;;;;;;;;5080772;28;20055;-72
2023/10/28 05:15:23;;;;;;;24.23;11.32;;;;;;;;;;5078180;28;20566;-72
2023/10/28 05:17:49;;;;;;;26.38;12.00;;;;;;;;;;5074704;28;20115;-72
2023/10/28 05:20:14;;;;;;;22.50;12.25;;;;;;;;;;5083136;28;20124;-72
2023/10/28 05:22:41;;;;;;;23.65;11.40;;;;;;;;;;5082767;28;20084;-72
2023/10/28 05:25:08;;;;;;;25.23;11.55;;;;;;;;;;5084792;28;20094;-72
2023/10/28 05:27:34;;;;;;;18.60;10.63;;;;;;;;;;5089570;28;20114;-72
2023/10/28 05:30:00;;;;;;;21.63;11.25;;;;;;;;;;5083110;28;20043;-72
2023/10/28 05:32:26;;;;;;;24.23;10.63;;;;;;;;;;5077150;28;20035;-72
2023/10/28 05:34:53;;;;;;;20.83;10.10;;;;;;;;;;5087352;28;20078;-72
2023/10/28 05:37:19;;;;;;;17.15;10.20;;;;;;;;;;5080230;28;20447;-72
2023/10/28 05:39:45;;;;;;;18.77;9.40;;;;;;;;;;5074037;28;20045;-72
2023/10/28 05:42:11;;;;;;;18.17;9.70;;;;;;;;;;5082403;28;20383;-72
2023/10/28 05:44:37;;;;;;;19.20;10.07;;;;;;;;;;5078321;28;20048;-72
2023/10/28 05:47:04;;;;;;;15.98;9.07;;;;;;;;;;5077517;28;20044;-72
2023/10/28 05:49:32;;;;;;;19.00;9.30;;;;;;;;;;5080521;28;20055;-72
2023/10/28 05:51:58;;;;;;;20.73;9.70;;;;;;;;;;5079629;28;20047;-72
2023/10/28 05:54:24;;;;;;;21.17;10.00;;;;;;;;;;5078724;28;20037;-72
2023/10/28 05:56:49;;;;;;;16.35;9.32;;;;;;;;;;5073033;28;20093;-72
2023/10/28 05:59:16;;;;;;;16.02;9.18;;;;;;;;;;5076749;28;20048;-72
2023/10/28 06:01:42;;;;;;;16.63;9.63;;;;;;;;;;5079246;28;20041;-72
2023/10/28 06:04:08;;;;;;;14.73;8.82;;;;;;;;;;5087725;28;20117;-72
2023/10/28 06:06:34;;;;;;;18.88;8.80;;;;;;;;;;5086627;28;20063;-72
2023/10/28 06:09:02;;;;;;;15.57;9.07;;;;;;;;;;5090645;28;20125;-73
2023/10/28 06:11:29;;;;;;;16.48;7.80;;;;;;;;;;5084474;28;20036;-72
2023/10/28 06:13:55;;;;;;;14.40;7.65;;;;;;;;;;5093026;28;20115;-72
2023/10/28 06:16:21;;;;;;;16.02;8.05;;;;;;;;;;5089516;28;20097;-72
2023/10/28 06:18:48;;;;;;;14.27;7.68;;;;;;;;;;5082828;28;20043;-72
2023/10/28 06:21:14;;;;;;;16.42;8.13;;;;;;;;;;5093526;28;20047;-72
2023/10/28 06:23:40;;;;;;;15.48;7.50;;;;;;;;;;5083014;28;20436;-72
2023/10/28 06:26:07;;;;;;;14.95;7.65;;;;;;;;;;5090340;28;20040;-72
2023/10/28 06:28:34;;;;;;;18.85;7.40;;;;;;;;;;5086520;28;20051;-72
2023/10/28 06:31:00;;;;;;;14.75;7.25;;;;;;;;;;5087766;28;20386;-72
2023/10/28 06:33:26;;;;;;;15.43;6.93;;;;;;;;;;5087568;28;20048;-72
2023/10/28 06:35:52;;;;;;;14.23;6.85;;;;;;;;;;5081180;28;20084;-72
2023/10/28 06:38:18;;;;;;;12.82;6.72;;;;;;;;;;5092993;28;20065;-72
2023/10/28 06:40:47;;;;;;;10.20;5.95;;;;;;;;;;5089064;28;20052;-72
2023/10/28 06:43:14;;;;;;;12.60;6.20;;;;;;;;;;5089130;28;20052;-72
2023/10/28 06:45:40;;;;;;;12.07;5.75;;;;;;;;;;5067125;28;20401;-72
2023/10/28 06:48:06;;;;;;;13.10;5.85;;;;;;;;;;5081864;28;20037;-72
2023/10/28 06:50:32;;;;;;;11.48;5.60;;;;;;;;;;5085776;28;20036;-72
2023/10/28 06:52:59;;;;;;;11.80;5.57;;;;;;;;;;5072986;28;20067;-72
2023/10/28 06:55:27;;;;;;;13.93;5.93;;;;;;;;;;5086583;28;20043;-71
2023/10/28 06:57:54;;;;;;;9.45;5.57;;;;;;;;;;5085959;28;20032;-71
2023/10/28 07:00:24;;;;;;;9.95;5.47;;;;;;;;;;5091663;28;20053;-71
2023/10/28 07:02:50;;;;;;;13.00;5.38;;;;;;;;;;5087498;28;20556;-71
2023/10/28 07:05:16;;;;;;;9.55;5.63;;;;;;;;;;5085906;28;20403;-71
2023/10/28 07:07:43;;;;;;;9.68;5.35;;;;;;;;;;5081357;28;20089;-71
2023/10/28 07:10:09;;;;;;;11.38;5.38;;;;;;;;;;5081767;28;20032;-71
2023/10/28 07:12:35;;;;;;;10.35;5.72;;;;;;;;;;5088104;28;20043;-71
2023/10/28 07:15:02;;;;;;;11.52;6.28;;;;;;;;;;5091609;28;20036;-71
2023/10/28 07:17:28;;;;;;;8.63;5.00;;;;;;;;;;5082927;28;20076;-71
2023/10/28 07:19:54;;;;;;;10.30;5.10;;;;;;;;;;5090338;28;20157;-71
2023/10/28 07:22:20;;;;;;;13.90;4.72;;;;;;;;;;5091504;28;20028;-71
2023/10/28 07:24:46;;;;;;;6.65;4.47;;;;;;;;;;5080893;28;20040;-71
2023/10/28 07:27:12;;;;;;;8.98;4.30;;;;;;;;;;5079734;28;20032;-71
2023/10/28 07:29:38;;;;;;;7.57;4.88;;;;;;;;;;5076203;28;20051;-71
2023/10/28 07:32:06;;;;;;;7.28;4.25;;;;;;;;;;5078631;28;20032;-71
2023/10/28 07:34:32;;;;;;;8.15;4.00;;;;;;;;;;5074422;28;20078;-71
2023/10/28 07:37:03;;;;;;;10.63;4.10;;;;;;;;;;5079139;28;20035;-71
2023/10/28 07:39:29;;;;;;;7.05;3.97;;;;;;;;;;5078379;28;20178;-71
2023/10/28 07:41:56;;;;;;;8.88;4.82;;;;;;;;;;5078378;28;20573;-71
2023/10/28 07:44:22;;;;;;;8.02;4.25;;;;;;;;;;5077616;28;20040;-71
2023/10/28 07:46:48;;;;;;;7.93;4.10;;;;;;;;;;5078656;28;20032;-72
2023/10/28 07:49:14;;;;;;;11.05;4.65;;;;;;;;;;5080508;28;20036;-72
2023/10/28 07:51:40;;;;;;;7.70;4.40;;;;;;;;;;5080385;28;20039;-71
2023/10/28 07:54:07;;;;;;;10.30;4.35;;;;;;;;;;5078705;28;20098;-71
2023/10/28 07:56:33;;;;;;;7.10;4.55;;;;;;;;;;5082799;28;20047;-72
2023/10/28 07:59:02;;;;;;;8.25;4.50;;;;;;;;;;5083394;28;20032;-72
2023/10/28 08:01:29;;;;;;;6.32;4.72;;;;;;;;;;5088032;28;20044;-72
2023/10/28 08:03:55;;;;;;;9.25;5.13;;;;;;;;;;5080757;28;20040;-72
2023/10/28 08:06:21;;;;;;;8.75;4.78;;;;;;;;;;5087031;28;20029;-72
2023/10/28 08:08:47;;;;;;;10.65;4.57;;;;;;;;;;5085564;28;20039;-72
2023/10/28 08:11:16;;;;;;;10.45;4.40;;;;;;;;;;5081926;28;20032;-72
2023/10/28 08:13:43;;;;;;;8.25;4.30;;;;;;;;;;5087201;28;20498;-72
2023/10/28 08:16:12;;;;;;;9.73;4.20;;;;;;;;;;5085520;28;20414;-72
2023/10/28 08:18:40;;;;;;;6.40;4.05;;;;;;;;;;5087675;28;20051;-72
2023/10/28 08:21:06;;;;;;;10.63;4.63;;;;;;;;;;5081234;28;20041;-72
2023/10/28 08:23:32;;;;;;;8.10;4.90;;;;;;;;;;5088737;28;20089;-72
2023/10/28 08:25:58;;;;;;;7.28;4.38;;;;;;;;;;5088102;28;20035;-72
2023/10/28 08:28:26;;;;;;;9.65;4.70;;;;;;;;;;5091859;28;20040;-72
2023/10/28 08:30:52;;;;;;;8.95;4.68;;;;;;;;;;5088105;28;20040;-71
2023/10/28 08:33:21;;;;;;;8.35;4.82;;;;;;;;;;5085933;28;20028;-71
2023/10/28 08:35:48;;;;;;;10.63;5.18;;;;;;;;;;5082163;28;20044;-71
2023/10/28 08:38:17;;;;;;;9.85;4.95;;;;;;;;;;5083855;28;20039;-72
2023/10/28 08:40:46;;;;;;;7.10;4.13;;;;;;;;;;5086601;28;20055;-72
2023/10/28 08:43:15;;;;;;;7.50;4.65;;;;;;;;;;5082401;28;20045;-72
2023/10/28 08:45:42;;;;;;;9.70;4.63;;;;;;;;;;5077026;28;20040;-72
2023/10/28 08:48:11;;;;;;;9.23;4.65;;;;;;;;;;5079737;28;20039;-71
2023/10/28 08:50:41;;;;;;;9.82;4.55;;;;;;;;;;5084329;28;20071;-71
2023/10/28 08:53:08;;;;;;;10.05;5.18;;;;;;;;;;5078887;28;20032;-71
2023/10/28 08:55:38;;;;;;;11.13;4.97;;;;;;;;;;5081568;28;20047;-72
2023/10/28 08:58:06;;;;;;;7.90;4.37;;;;;;;;;;5082686;28;20040;-72
2023/10/28 09:00:33;;;;;;;9.65;4.95;;;;;;;;;;5079159;28;20497;-72
2023/10/28 09:03:01;;;;;;;7.40;4.25;;;;;;;;;;5081539;28;20039;-72
2023/10/28 09:05:27;;;;;;;8.93;4.13;;;;;;;;;;5081407;28;20043;-72
2023/10/28 09:07:52;;;;;;;8.55;4.10;;;;;;;;;;5086240;28;20044;-72
2023/10/28 09:10:21;;;;;;;9.57;4.53;;;;;;;;;;5085905;28;20504;-72
2023/10/28 09:12:47;;;;;;;9.55;4.18;;;;;;;;;;5089640;28;20505;-72
2023/10/28 09:15:13;;;;;;;8.07;4.30;;;;;;;;;;5093166;28;20124;-72
2023/10/28 09:17:39;;;;;;;10.30;4.82;;;;;;;;;;5090580;28;20474;-72
2023/10/28 09:20:09;;;;;;;8.63;4.80;;;;;;;;;;5092099;28;20040;-72
2023/10/28 09:22:39;;;;;;;11.40;4.63;;;;;;;;;;5094260;28;20079;-72
2023/10/28 09:25:05;;;;;;;7.53;4.18;;;;;;;;;;5084364;28;20040;-72
2023/10/28 09:27:32;;;;;;;10.23;4.43;;;;;;;;;;5087232;28;21573;-72
2023/10/28 09:30:05;;;;;;;11.00;4.53;;;;;;;;;;5088395;28;20071;-72
2023/10/28 09:32:32;;;;;;;8.32;4.28;;;;;;;;;;5093331;28;20039;-72
2023/10/28 09:34:59;;;;;;;8.82;4.60;;;;;;;;;;5084423;28;20051;-72
2023/10/28 09:37:25;;;;;;;9.65;4.45;;;;;;;;;;5089043;28;20054;-72
2023/10/28 09:39:51;;;;;;;8.00;4.00;;;;;;;;;;5083484;28;20036;-72
2023/10/28 09:42:17;;;;;;;10.65;4.10;;;;;;;;;;5066327;28;20047;-71
2023/10/28 09:44:44;;;;;;;9.55;4.63;;;;;;;;;;5089147;28;20402;-71
2023/10/28 09:47:14;;;;;;;10.25;4.28;;;;;;;;;;5091069;28;20047;-71
2023/10/28 09:49:43;;;;;;;7.13;3.78;;;;;;;;;;5092525;28;20040;-71
2023/10/28 09:52:11;;;;;;;8.38;4.13;;;;;;;;;;5090655;28;20032;-71
2023/10/28 09:54:37;;;;;;;6.18;4.35;;;;;;;;;;5090222;28;20042;-71
2023/10/28 09:57:09;;;;;;;8.88;4.70;;;;;;;;;;5080276;28;20089;-71
2023/10/28 09:59:37;;;;;;;8.77;4.18;;;;;;;;;;5092175;28;20055;-72
2023/10/28 10:02:23;;;;;;;10.13;4.50;;;;;;;;;;5119289;22;20041;-64
2023/10/28 10:04:52;;;;;;;10.77;4.43;;;;;;;;;;5053425;28;20094;-64
2023/10/28 10:07:18;;;;;;;9.05;4.38;;;;;;;;;;5055116;28;20040;-64
2023/10/28 10:09:45;;;;;;;8.57;4.32;;;;;;;;;;5057008;28;20075;-65
2023/10/28 10:12:12;;;;;;;9.07;4.00;;;;;;;;;;5045805;28;20044;-65
2023/10/28 10:14:39;;;;;;;10.43;4.47;;;;;;;;;;5039897;28;20045;-65
2023/10/28 10:17:22;;;;;;;7.35;3.92;;;;;;;;;;5040484;28;20044;-65
2023/10/28 10:19:49;;;;;;;6.13;3.47;;;;;;;;;;5054425;28;20037;-64
2023/10/28 10:22:26;;;;;;;7.90;3.97;;;;;;;;;;5055293;28;20041;-64
2023/10/28 10:24:52;;;;;;;10.13;3.53;;;;;;;;;;5059394;28;20666;-64
2023/10/28 10:27:33;;;;;;;6.80;3.90;;;;;;;;;;5050037;28;20079;-64
2023/10/28 10:30:03;;;;;;;5.57;3.87;;;;;;;;;;5036308;28;20037;-63
2023/10/28 10:32:29;;;;;;;8.45;3.65;;;;;;;;;;5048782;28;20508;-63
2023/10/28 10:34:55;;;;;;;5.72;3.67;;;;;;;;;;5048721;28;20040;-63
2023/10/28 10:37:25;;;;;;;8.75;3.80;;;;;;;;;;5047570;28;20047;-64
2023/10/28 10:39:51;;;;;;;7.82;3.83;;;;;;;;;;5046315;28;20065;-63
2023/10/28 10:42:17;;;;;;;8.30;4.10;;;;;;;;;;5049598;28;20143;-63
2023/10/28 10:44:43;;;;;;;6.90;4.13;;;;;;;;;;5050920;28;20469;-63
2023/10/28 10:47:10;;;;;;;7.22;3.50;;;;;;;;;;5052351;28;20060;-63
2023/10/28 10:49:40;;;;;;;7.72;3.42;;;;;;;;;;5050108;28;20037;-63
2023/10/28 10:52:08;;;;;;;8.03;3.97;;;;;;;;;;5040417;28;20429;-63
2023/10/28 10:54:38;;;;;;;8.50;3.60;;;;;;;;;;5046911;28;20062;-63
2023/10/28 10:57:06;;;;;;;9.07;3.83;;;;;;;;;;5051216;28;20048;-63
2023/10/28 10:59:33;;;;;;;5.60;3.47;;;;;;;;;;5045208;28;20527;-63
2023/10/28 11:02:02;;;;;;;8.82;3.83;;;;;;;;;;5052747;28;20049;-63
2023/10/28 11:04:29;;;;;;;5.45;3.70;;;;;;;;;;5049897;28;20131;-63
2023/10/28 11:06:55;;;;;;;7.28;3.60;;;;;;;;;;5049708;28;20044;-63
2023/10/28 11:09:21;;;;;;;8.93;3.70;;;;;;;;;;5049082;28;20419;-63
2023/10/28 11:11:48;;;;;;;9.93;4.30;;;;;;;;;;5043048;28;20041;-63
2023/10/28 11:14:14;;;;;;;7.75;3.60;;;;;;;;;;5050392;28;20041;-63
2023/10/28 11:16:41;;;;;;;6.03;3.92;;;;;;;;;;5047858;28;20516;-64
2023/10/28 11:19:08;;;;;;;7.70;4.10;;;;;;;;;;5050836;28;20041;-63
2023/10/28 11:21:34;;;;;;;8.98;3.88;;;;;;;;;;5050372;28;20129;-63
2023/10/28 11:24:00;;;;;;;8.07;3.40;;;;;;;;;;5045906;28;20045;-63
2023/10/28 11:26:28;;;;;;;5.53;3.45;;;;;;;;;;5047623;28;20041;-63
2023/10/28 11:28:57;;;;;;;5.95;3.70;;;;;;;;;;5045862;28;20044;-63
2023/10/28 11:31:23;;;;;;;9.43;3.85;;;;;;;;;;5051516;28;20523;-64
2023/10/28 11:33:50;;;;;;;5.93;3.58;;;;;;;;;;5049378;28;20051;-63
2023/10/28 11:36:17;;;;;;;13.18;3.97;;;;;;;;;;5050562;28;20485;-64
2023/10/28 11:38:44;;;;;;;8.55;3.42;;;;;;;;;;5049994;28;20413;-64
2023/10/28 11:41:11;;;;;;;10.07;3.95;;;;;;;;;;5045132;28;20041;-63
2023/10/28 11:43:37;;;;;;;8.32;3.90;;;;;;;;;;5048595;28;20102;-64
2023/10/28 11:46:03;;;;;;;5.88;3.42;;;;;;;;;;5046378;28;20546;-64
2023/10/28 11:48:30;;;;;;;10.25;3.70;;;;;;;;;;5049443;28;20037;-64
2023/10/28 11:50:56;;;;;;;5.80;3.08;;;;;;;;;;5050278;28;20040;-64
2023/10/28 11:53:23;;;;;;;10.00;3.30;;;;;;;;;;5050898;28;20420;-63
2023/10/28 11:55:49;;;;;;;4.82;2.88;;;;;;;;;;5048592;28;20036;-64
2023/10/28 11:58:15;;;;;;;5.43;3.28;;;;;;;;;;5040896;28;20037;-64
2023/10/28 12:00:41;;;;;;;7.10;2.85;;;;;;;;;;5049831;28;20520;-64
2023/10/28 12:03:07;;;;;;;6.47;2.97;;;;;;;;;;5046288;28;20563;-63
2023/10/28 12:05:34;;;;;;;7.88;3.25;;;;;;;;;;5047746;28;20039;-63
2023/10/28 12:08:00;;;;;;;13.02;2.88;;;;;;;;;;5047877;28;20095;-64
2023/10/28 12:10:27;;;;;;;7.38;3.10;;;;;;;;;;5046832;28;20041;-63
2023/10/28 12:12:53;;;;;;;10.50;3.55;;;;;;;;;;5051087;28;20041;-63
2023/10/28 12:15:19;;;;;;;7.75;2.85;;;;;;;;;;5051185;28;20079;-63
2023/10/28 12:17:46;;;;;;;5.32;2.70;;;;;;;;;;5048500;28;20408;-63
2023/10/28 12:20:14;;;;;;;6.03;2.53;;;;;;;;;;5043000;28;20037;-63
2023/10/28 12:22:43;;;;;;;8.63;2.90;;;;;;;;;;5047876;28;20128;-63
2023/10/28 12:25:11;;;;;;;6.47;2.85;;;;;;;;;;5043350;28;20041;-63
2023/10/28 12:27:37;;;;;;;7.43;2.80;;;;;;;;;;5041517;28;20041;-63
2023/10/28 12:30:06;;;;;;;6.15;2.45;;;;;;;;;;5050583;28;20396;-63
2023/10/28 12:32:33;;;;;;;6.70;2.53;;;;;;;;;;5044033;28;20041;-63
2023/10/28 12:34:59;;;;;;;8.43;2.90;;;;;;;;;;5038907;28;20044;-63
2023/10/28 12:37:26;;;;;;;7.25;2.65;;;;;;;;;;5017210;28;20044;-63
2023/10/28 12:39:52;;;;;;;6.57;2.58;;;;;;;;;;5031077;28;20029;-63
2023/10/28 12:42:18;;;;;;;7.28;2.80;;;;;;;;;;5045841;28;20045;-63
2023/10/28 12:44:44;;;;;;;6.53;2.63;;;;;;;;;;5049798;28;20044;-63
2023/10/28 12:47:10;;;;;;;10.13;2.80;;;;;;;;;;5048172;28;20091;-63
2023/10/28 12:49:36;;;;;;;7.57;3.10;;;;;;;;;;5025019;28;20684;-63
2023/10/28 12:52:02;;;;;;;7.22;2.67;;;;;;;;;;5047528;28;20047;-62
2023/10/28 12:54:32;;;;;;;6.80;2.58;;;;;;;;;;5039532;28;20044;-63
2023/10/28 12:56:58;;;;;;;9.25;2.65;;;;;;;;;;5038778;28;20460;-62
2023/10/28 12:59:24;;;;;;;6.03;2.67;;;;;;;;;;5041832;28;20045;-63
2023/10/28 13:01:50;;;;;;;4.90;2.53;;;;;;;;;;5045459;28;20421;-62
2023/10/28 13:04:17;;;;;;;7.40;2.45;;;;;;;;;;5039775;28;20115;-63
2023/10/28 13:06:43;;;;;;;5.90;2.47;;;;;;;;;;5037855;28;20044;-63
2023/10/28 13:09:11;;;;;;;5.70;2.40;;;;;;;;;;5040977;28;20030;-63
2023/10/28 13:11:40;;;;;;;6.68;2.70;;;;;;;;;;5045330;28;20041;-63
2023/10/28 13:14:07;;;;;;;6.78;2.75;;;;;;;;;;5036683;28;20033;-63
2023/10/28 13:16:34;;;;;;;8.15;2.90;;;;;;;;;;5042460;28;20080;-63
2023/10/28 13:19:02;;;;;;;7.97;2.50;;;;;;;;;;5036188;28;20103;-63
2023/10/28 13:21:28;;;;;;;6.25;2.53;;;;;;;;;;5045919;28;20382;-63
2023/10/28 13:23:54;;;;;;;7.45;2.60;;;;;;;;;;5042751;28;20120;-63
2023/10/28 13:26:20;;;;;;;3.70;2.35;;;;;;;;;;5048707;28;20418;-63
2023/10/28 13:28:47;;;;;;;6.97;2.67;;;;;;;;;;5034340;28;20461;-63
2023/10/28 13:31:13;;;;;;;9.05;2.60;;;;;;;;;;5037216;28;20090;-63
2023/10/28 13:33:39;;;;;;;6.00;2.33;;;;;;;;;;5045977;28;20488;-63
2023/10/28 13:36:06;;;;;;;4.55;2.60;;;;;;;;;;5034736;28;20037;-63
2023/10/28 13:38:32;;;;;;;8.02;2.40;;;;;;;;;;5041654;28;20572;-63
2023/10/28 13:40:59;;;;;;;6.88;2.80;;;;;;;;;;5034678;28;20517;-62
2023/10/28 13:43:25;;;;;;;6.75;2.63;;;;;;;;;;5047572;28;20045;-63
2023/10/28 13:45:52;;;;;;;6.68;2.65;;;;;;;;;;5035506;28;20041;-63
2023/10/28 13:48:18;;;;;;;5.90;2.53;;;;;;;;;;5034946;28;20037;-63
2023/10/28 13:50:45;;;;;;;7.47;3.08;;;;;;;;;;5046067;28;20365;-63
2023/10/28 13:53:11;;;;;;;6.90;2.95;;;;;;;;;;5048575;28;20099;-63
2023/10/28 13:55:38;;;;;;;5.53;2.75;;;;;;;;;;5051421;28;20044;-63
2023/10/28 13:58:04;;;;;;;7.78;2.78;;;;;;;;;;5044627;28;20119;-63
2023/10/28 14:00:30;;;;;;;4.75;2.63;;;;;;;;;;5039069;28;20038;-63
2023/10/28 14:02:56;;;;;;;6.22;2.58;;;;;;;;;;5037626;28;20159;-63
2023/10/28 14:05:22;;;;;;;7.70;2.35;;;;;;;;;;5040415;28;20029;-64
2023/10/28 14:07:48;;;;;;;6.80;2.47;;;;;;;;;;5040306;28;20033;-63
2023/10/28 14:10:14;;;;;;;7.38;3.00;;;;;;;;;;5037546;28;20391;-63
2023/10/28 14:12:41;;;;;;;6.53;2.78;;;;;;;;;;5031518;28;20045;-63
2023/10/28 14:15:09;;;;;;;7.57;2.38;;;;;;;;;;5040539;28;20581;-63
2023/10/28 14:17:35;;;;;;;5.25;2.60;;;;;;;;;;5046177;28;20045;-63
2023/10/28 14:20:01;;;;;;;9.63;3.15;;;;;;;;;;5042518;28;20473;-63
2023/10/28 14:22:29;;;;;;;7.88;2.40;;;;;;;;;;5034861;28;20088;-63
2023/10/28 14:24:55;;;;;;;7.47;3.15;;;;;;;;;;5043210;28;20045;-63
2023/10/28 14:27:21;;;;;;;7.35;3.78;;;;;;;;;;5036008;28;20402;-62
2023/10/28 14:29:47;;;;;;;48.20;37.85;;;;;;;;;;5043780;28;20037;-62